sensor_id;sensor_type;location;lat;lon;timestamp;temperature;humidity
1700;DHT22;847;48.058;7.810;2023-05-10T00:01:42;15.90;99.00
1700;DHT22;847;48.058;7.810;2023-05-10T00:04:08;16.00;99.00
1700;DHT22;847;48.058;7.810;2023-05-10T00:06:35;15.90;99.00
1700;DHT22;847;48.058;7.810;2023-05-10T00:09:02;15.90;99.00
1700;DHT22;847;48.058;7.810;2023-05-10T00:11:29;15.90;99.00
1700;DHT22;847;48.058;7.810;2023-05-10T00:13:56;15.90;99.00
1700;DHT22;847;48.058;7.810;2023-05-10T00:16:22;15.90;99.00
1700;DHT22;847;48.058;7.810;2023-05-10T00:18:51;15.80;99.00
1700;DHT22;847;48.058;7.810;2023-05-10T00:21:17;15.80;99.00
1700;DHT22;847;48.058;7.810;2023-05-10T00:23:44;15.80;99.00
1700;DHT22;847;48.058;7.810;2023-05-10T00:26:11;15.70;99.00
1700;DHT22;847;48.058;7.810;2023-05-10T00:28:38;15.70;99.00
1700;DHT22;847;48.058;7.810;2023-05-10T00:31:04;15.80;99.00
1700;DHT22;847;48.058;7.810;2023-05-10T00:33:31;15.80;99.00
1700;DHT22;847;48.058;7.810;2023-05-10T00:35:59;15.80;99.00
1700;DHT22;847;48.058;7.810;2023-05-10T00:38:26;15.80;99.00
1700;DHT22;847;48.058;7.810;2023-05-10T00:40:53;15.70;99.00
1700;DHT22;847;48.058;7.810;2023-05-10T00:43:20;15.70;99.00
1700;DHT22;847;48.058;7.810;2023-05-10T00:45:46;15.70;99.00
1700;DHT22;847;48.058;7.810;2023-05-10T00:48:13;15.60;99.00
1700;DHT22;847;48.058;7.810;2023-05-10T00:50:40;15.60;99.00
1700;DHT22;847;48.058;7.810;2023-05-10T00:53:09;15.70;99.00
1700;DHT22;847;48.058;7.810;2023-05-10T00:55:36;15.70;99.00
1700;DHT22;847;48.058;7.810;2023-05-10T00:58:03;15.70;99.00
1700;DHT22;847;48.058;7.810;2023-05-10T01:00:32;15.70;99.00
1700;DHT22;847;48.058;7.810;2023-05-10T01:02:59;15.70;99.00
1700;DHT22;847;48.058;7.810;2023-05-10T01:05:27;15.60;99.00
1700;DHT22;847;48.058;7.810;2023-05-10T01:07:53;15.60;99.00
1700;DHT22;847;48.058;7.810;2023-05-10T01:10:22;15.60;99.00
1700;DHT22;847;48.058;7.810;2023-05-10T01:12:49;15.60;99.00
1700;DHT22;847;48.058;7.810;2023-05-10T01:15:16;15.70;99.00
1700;DHT22;847;48.058;7.810;2023-05-10T01:17:44;15.60;99.00
1700;DHT22;847;48.058;7.810;2023-05-10T01:20:12;15.50;99.00
1700;DHT22;847;48.058;7.810;2023-05-10T01:22:55;15.50;99.00
1700;DHT22;847;48.058;7.810;2023-05-10T01:31:38;15.50;99.00
1700;DHT22;847;48.058;7.810;2023-05-10T01:34:15;15.50;99.00
1700;DHT22;847;48.058;7.810;2023-05-10T01:36:47;15.40;99.00
1700;DHT22;847;48.058;7.810;2023-05-10T01:39:19;15.40;99.00
1700;DHT22;847;48.058;7.810;2023-05-10T01:41:51;15.50;99.00
1700;DHT22;847;48.058;7.810;2023-05-10T01:44:27;15.50;99.00
1700;DHT22;847;48.058;7.810;2023-05-10T01:47:00;15.50;99.00
1700;DHT22;847;48.058;7.810;2023-05-10T01:49:34;15.40;99.00
1700;DHT22;847;48.058;7.810;2023-05-10T01:52:06;15.40;99.00
1700;DHT22;847;48.058;7.810;2023-05-10T01:54:34;15.40;99.00
1700;DHT22;847;48.058;7.810;2023-05-10T01:57:05;15.40;99.00
1700;DHT22;847;48.058;7.810;2023-05-10T01:59:35;15.40;99.00
1700;DHT22;847;48.058;7.810;2023-05-10T02:02:07;15.40;99.00
1700;DHT22;847;48.058;7.810;2023-05-10T02:04:39;15.40;99.00
1700;DHT22;847;48.058;7.810;2023-05-10T02:07:06;15.40;99.00
1700;DHT22;847;48.058;7.810;2023-05-10T02:09:35;15.40;99.00
1700;DHT22;847;48.058;7.810;2023-05-10T02:12:04;15.40;99.00
1700;DHT22;847;48.058;7.810;2023-05-10T02:14:35;15.40;99.00
1700;DHT22;847;48.058;7.810;2023-05-10T02:17:04;15.40;99.00
1700;DHT22;847;48.058;7.810;2023-05-10T02:19:32;15.40;99.00
1700;DHT22;847;48.058;7.810;2023-05-10T02:22:01;15.40;99.00
1700;DHT22;847;48.058;7.810;2023-05-10T02:24:28;15.40;99.00
1700;DHT22;847;48.058;7.810;2023-05-10T02:26:56;15.40;99.00
1700;DHT22;847;48.058;7.810;2023-05-10T02:29:25;15.40;99.00
1700;DHT22;847;48.058;7.810;2023-05-10T02:31:54;15.40;99.00
1700;DHT22;847;48.058;7.810;2023-05-10T02:34:22;15.30;99.00
1700;DHT22;847;48.058;7.810;2023-05-10T02:36:50;15.20;99.00
1700;DHT22;847;48.058;7.810;2023-05-10T02:39:19;15.20;99.00
1700;DHT22;847;48.058;7.810;2023-05-10T02:41:48;15.20;99.00
1700;DHT22;847;48.058;7.810;2023-05-10T02:44:18;15.30;99.00
1700;DHT22;847;48.058;7.810;2023-05-10T02:46:45;15.30;99.00
1700;DHT22;847;48.058;7.810;2023-05-10T02:49:12;15.30;99.00
1700;DHT22;847;48.058;7.810;2023-05-10T02:51:43;15.30;99.00
1700;DHT22;847;48.058;7.810;2023-05-10T02:54:13;15.30;99.00
1700;DHT22;847;48.058;7.810;2023-05-10T02:56:51;15.30;99.00
1700;DHT22;847;48.058;7.810;2023-05-10T02:59:20;15.30;99.00
1700;DHT22;847;48.058;7.810;2023-05-10T03:01:47;15.30;99.00
1700;DHT22;847;48.058;7.810;2023-05-10T03:04:13;15.20;99.00
1700;DHT22;847;48.058;7.810;2023-05-10T03:06:40;15.20;99.00
1700;DHT22;847;48.058;7.810;2023-05-10T03:09:07;15.20;99.00
1700;DHT22;847;48.058;7.810;2023-05-10T03:11:47;15.20;99.00
1700;DHT22;847;48.058;7.810;2023-05-10T03:14:31;15.20;99.00
1700;DHT22;847;48.058;7.810;2023-05-10T03:17:07;15.20;99.00
1700;DHT22;847;48.058;7.810;2023-05-10T03:19:42;15.10;99.00
1700;DHT22;847;48.058;7.810;2023-05-10T03:22:11;15.10;99.00
1700;DHT22;847;48.058;7.810;2023-05-10T03:24:39;15.10;99.00
1700;DHT22;847;48.058;7.810;2023-05-10T03:27:09;15.10;99.00
1700;DHT22;847;48.058;7.810;2023-05-10T03:29:38;15.20;99.00
1700;DHT22;847;48.058;7.810;2023-05-10T03:32:05;15.10;99.00
1700;DHT22;847;48.058;7.810;2023-05-10T03:34:32;15.10;99.00
1700;DHT22;847;48.058;7.810;2023-05-10T03:36:59;15.10;99.00
1700;DHT22;847;48.058;7.810;2023-05-10T03:39:25;15.10;99.00
1700;DHT22;847;48.058;7.810;2023-05-10T03:41:52;15.10;99.00
1700;DHT22;847;48.058;7.810;2023-05-10T03:44:20;15.10;99.00
1700;DHT22;847;48.058;7.810;2023-05-10T03:46:47;15.10;99.00
1700;DHT22;847;48.058;7.810;2023-05-10T03:49:14;15.10;99.00
1700;DHT22;847;48.058;7.810;2023-05-10T03:51:40;15.10;99.00
1700;DHT22;847;48.058;7.810;2023-05-10T03:54:07;15.00;99.00
1700;DHT22;847;48.058;7.810;2023-05-10T03:56:34;15.10;99.00
1700;DHT22;847;48.058;7.810;2023-05-10T03:59:01;15.10;99.00
1700;DHT22;847;48.058;7.810;2023-05-10T04:01:33;15.00;99.00
1700;DHT22;847;48.058;7.810;2023-05-10T04:04:00;15.00;99.00
1700;DHT22;847;48.058;7.810;2023-05-10T04:06:27;15.00;99.00
1700;DHT22;847;48.058;7.810;2023-05-10T04:08:54;15.00;99.00
1700;DHT22;847;48.058;7.810;2023-05-10T04:11:20;15.00;99.00
1700;DHT22;847;48.058;7.810;2023-05-10T04:13:48;15.00;99.00
1700;DHT22;847;48.058;7.810;2023-05-10T04:16:14;14.90;99.00
1700;DHT22;847;48.058;7.810;2023-05-10T04:18:42;14.90;99.00
1700;DHT22;847;48.058;7.810;2023-05-10T04:21:12;14.90;99.00
1700;DHT22;847;48.058;7.810;2023-05-10T04:23:39;14.80;99.00
1700;DHT22;847;48.058;7.810;2023-05-10T04:26:06;14.90;99.00
1700;DHT22;847;48.058;7.810;2023-05-10T04:28:33;14.90;99.00
1700;DHT22;847;48.058;7.810;2023-05-10T04:31:01;14.90;99.00
1700;DHT22;847;48.058;7.810;2023-05-10T04:33:28;14.90;99.00
1700;DHT22;847;48.058;7.810;2023-05-10T04:35:56;14.90;99.00
1700;DHT22;847;48.058;7.810;2023-05-10T04:38:23;14.90;99.00
1700;DHT22;847;48.058;7.810;2023-05-10T04:40:50;14.90;99.00
1700;DHT22;847;48.058;7.810;2023-05-10T04:43:17;14.90;99.00
1700;DHT22;847;48.058;7.810;2023-05-10T04:45:44;14.90;99.00
1700;DHT22;847;48.058;7.810;2023-05-10T04:48:10;14.90;99.00
1700;DHT22;847;48.058;7.810;2023-05-10T04:50:38;14.90;99.00
1700;DHT22;847;48.058;7.810;2023-05-10T04:53:06;14.90;99.00
1700;DHT22;847;48.058;7.810;2023-05-10T04:55:33;14.90;99.00
1700;DHT22;847;48.058;7.810;2023-05-10T04:58:00;14.80;99.00
1700;DHT22;847;48.058;7.810;2023-05-10T05:00:26;14.80;99.00
1700;DHT22;847;48.058;7.810;2023-05-10T05:02:53;14.90;99.00
1700;DHT22;847;48.058;7.810;2023-05-10T05:05:20;14.90;99.00
1700;DHT22;847;48.058;7.810;2023-05-10T05:07:47;14.80;99.00
1700;DHT22;847;48.058;7.810;2023-05-10T05:10:15;14.80;99.00
1700;DHT22;847;48.058;7.810;2023-05-10T05:12:42;14.80;99.00
1700;DHT22;847;48.058;7.810;2023-05-10T05:15:09;14.70;99.00
1700;DHT22;847;48.058;7.810;2023-05-10T05:17:36;14.80;99.00
1700;DHT22;847;48.058;7.810;2023-05-10T05:20:03;14.80;99.00
1700;DHT22;847;48.058;7.810;2023-05-10T05:22:30;14.80;99.00
1700;DHT22;847;48.058;7.810;2023-05-10T05:24:57;14.80;99.00
1700;DHT22;847;48.058;7.810;2023-05-10T05:27:26;14.80;99.00
1700;DHT22;847;48.058;7.810;2023-05-10T05:29:53;14.70;99.00
1700;DHT22;847;48.058;7.810;2023-05-10T05:32:20;14.60;99.00
1700;DHT22;847;48.058;7.810;2023-05-10T05:34:47;14.60;99.00
1700;DHT22;847;48.058;7.810;2023-05-10T05:37:14;14.60;99.00
1700;DHT22;847;48.058;7.810;2023-05-10T05:39:41;14.70;99.00
1700;DHT22;847;48.058;7.810;2023-05-10T05:42:08;14.70;99.00
1700;DHT22;847;48.058;7.810;2023-05-10T05:44:36;14.70;99.00
1700;DHT22;847;48.058;7.810;2023-05-10T05:47:03;14.70;99.00
1700;DHT22;847;48.058;7.810;2023-05-10T05:49:30;14.60;99.00
1700;DHT22;847;48.058;7.810;2023-05-10T05:51:58;14.60;99.00
1700;DHT22;847;48.058;7.810;2023-05-10T05:54:26;14.50;99.00
1700;DHT22;847;48.058;7.810;2023-05-10T05:56:54;14.50;99.00
1700;DHT22;847;48.058;7.810;2023-05-10T05:59:21;14.60;99.00
1700;DHT22;847;48.058;7.810;2023-05-10T06:01:49;14.50;99.00
1700;DHT22;847;48.058;7.810;2023-05-10T06:04:17;14.60;99.00
1700;DHT22;847;48.058;7.810;2023-05-10T06:06:43;14.50;99.00
1700;DHT22;847;48.058;7.810;2023-05-10T06:09:10;14.50;99.00
1700;DHT22;847;48.058;7.810;2023-05-10T06:11:37;14.50;99.00
1700;DHT22;847;48.058;7.810;2023-05-10T06:14:04;14.50;99.00
1700;DHT22;847;48.058;7.810;2023-05-10T06:16:32;14.60;99.00
1700;DHT22;847;48.058;7.810;2023-05-10T06:19:01;14.60;99.00
1700;DHT22;847;48.058;7.810;2023-05-10T06:21:27;14.60;99.00
1700;DHT22;847;48.058;7.810;2023-05-10T06:23:54;14.60;99.00
1700;DHT22;847;48.058;7.810;2023-05-10T06:26:21;14.60;99.00
1700;DHT22;847;48.058;7.810;2023-05-10T06:28:48;14.60;99.00
1700;DHT22;847;48.058;7.810;2023-05-10T06:31:15;14.50;99.00
1700;DHT22;847;48.058;7.810;2023-05-10T06:33:41;14.50;99.00
1700;DHT22;847;48.058;7.810;2023-05-10T06:36:09;14.50;99.00
1700;DHT22;847;48.058;7.810;2023-05-10T06:38:36;14.50;99.00
1700;DHT22;847;48.058;7.810;2023-05-10T06:41:03;14.50;99.00
1700;DHT22;847;48.058;7.810;2023-05-10T06:43:30;14.50;99.00
1700;DHT22;847;48.058;7.810;2023-05-10T06:45:57;14.50;99.00
1700;DHT22;847;48.058;7.810;2023-05-10T06:48:23;14.50;99.00
1700;DHT22;847;48.058;7.810;2023-05-10T06:50:50;14.50;99.00
1700;DHT22;847;48.058;7.810;2023-05-10T06:53:19;14.50;99.00
1700;DHT22;847;48.058;7.810;2023-05-10T06:55:45;14.50;99.00
1700;DHT22;847;48.058;7.810;2023-05-10T06:58:12;14.50;99.00
1700;DHT22;847;48.058;7.810;2023-05-10T07:00:39;14.50;99.00
1700;DHT22;847;48.058;7.810;2023-05-10T07:03:06;14.50;99.00
1700;DHT22;847;48.058;7.810;2023-05-10T07:05:32;14.50;99.00
1700;DHT22;847;48.058;7.810;2023-05-10T07:07:59;14.50;99.00
1700;DHT22;847;48.058;7.810;2023-05-10T07:10:27;14.50;99.00
1700;DHT22;847;48.058;7.810;2023-05-10T07:12:55;14.50;99.00
1700;DHT22;847;48.058;7.810;2023-05-10T07:15:22;14.60;99.00
1700;DHT22;847;48.058;7.810;2023-05-10T07:17:49;14.60;99.00
1700;DHT22;847;48.058;7.810;2023-05-10T07:20:17;14.60;99.00
1700;DHT22;847;48.058;7.810;2023-05-10T07:22:44;14.50;99.00
1700;DHT22;847;48.058;7.810;2023-05-10T07:25:10;14.60;99.00
1700;DHT22;847;48.058;7.810;2023-05-10T07:27:38;14.60;99.00
1700;DHT22;847;48.058;7.810;2023-05-10T07:30:06;14.70;99.00
1700;DHT22;847;48.058;7.810;2023-05-10T07:32:33;14.70;99.00
1700;DHT22;847;48.058;7.810;2023-05-10T07:35:00;14.80;99.00
1700;DHT22;847;48.058;7.810;2023-05-10T07:37:27;14.80;99.00
1700;DHT22;847;48.058;7.810;2023-05-10T07:39:53;14.80;99.00
1700;DHT22;847;48.058;7.810;2023-05-10T07:42:21;14.80;99.00
1700;DHT22;847;48.058;7.810;2023-05-10T07:44:49;14.90;99.00
1700;DHT22;847;48.058;7.810;2023-05-10T07:47:16;14.90;99.00
1700;DHT22;847;48.058;7.810;2023-05-10T07:49:43;14.90;99.00
1700;DHT22;847;48.058;7.810;2023-05-10T07:52:10;14.90;99.00
1700;DHT22;847;48.058;7.810;2023-05-10T07:54:36;15.00;99.00
1700;DHT22;847;48.058;7.810;2023-05-10T07:57:03;15.00;99.00
1700;DHT22;847;48.058;7.810;2023-05-10T07:59:30;15.00;99.00
1700;DHT22;847;48.058;7.810;2023-05-10T08:01:59;15.10;99.00
1700;DHT22;847;48.058;7.810;2023-05-10T08:04:26;15.10;99.00
1700;DHT22;847;48.058;7.810;2023-05-10T08:06:52;15.10;99.00
1700;DHT22;847;48.058;7.810;2023-05-10T08:09:19;15.10;99.00
1700;DHT22;847;48.058;7.810;2023-05-10T08:11:49;15.10;99.00
1700;DHT22;847;48.058;7.810;2023-05-10T08:14:16;15.10;99.00
1700;DHT22;847;48.058;7.810;2023-05-10T08:16:42;15.10;99.00
1700;DHT22;847;48.058;7.810;2023-05-10T08:19:10;15.10;99.00
1700;DHT22;847;48.058;7.810;2023-05-10T08:21:37;15.20;99.00
1700;DHT22;847;48.058;7.810;2023-05-10T08:24:06;15.20;99.00
1700;DHT22;847;48.058;7.810;2023-05-10T08:26:33;15.30;99.00
1700;DHT22;847;48.058;7.810;2023-05-10T08:29:00;15.30;99.00
1700;DHT22;847;48.058;7.810;2023-05-10T08:31:26;15.30;99.00
1700;DHT22;847;48.058;7.810;2023-05-10T08:33:53;15.20;99.00
1700;DHT22;847;48.058;7.810;2023-05-10T08:36:21;15.20;99.00
1700;DHT22;847;48.058;7.810;2023-05-10T08:38:50;15.20;99.00
1700;DHT22;847;48.058;7.810;2023-05-10T08:41:18;15.20;99.00
1700;DHT22;847;48.058;7.810;2023-05-10T08:43:46;15.30;99.00
1700;DHT22;847;48.058;7.810;2023-05-10T08:46:16;15.30;99.00
1700;DHT22;847;48.058;7.810;2023-05-10T08:48:44;15.50;99.00
1700;DHT22;847;48.058;7.810;2023-05-10T08:51:13;15.50;99.00
1700;DHT22;847;48.058;7.810;2023-05-10T08:53:41;15.60;99.00
1700;DHT22;847;48.058;7.810;2023-05-10T08:56:08;15.60;99.00
1700;DHT22;847;48.058;7.810;2023-05-10T08:58:36;15.60;99.00
1700;DHT22;847;48.058;7.810;2023-05-10T09:01:03;15.50;99.00
1700;DHT22;847;48.058;7.810;2023-05-10T09:03:30;15.30;98.50
1700;DHT22;847;48.058;7.810;2023-05-10T09:05:56;15.10;99.00
1700;DHT22;847;48.058;7.810;2023-05-10T09:08:24;14.90;99.00
1700;DHT22;847;48.058;7.810;2023-05-10T09:10:54;14.70;99.00
1700;DHT22;847;48.058;7.810;2023-05-10T09:13:22;14.60;99.00
1700;DHT22;847;48.058;7.810;2023-05-10T09:15:49;14.50;99.00
1700;DHT22;847;48.058;7.810;2023-05-10T09:18:16;14.40;99.00
1700;DHT22;847;48.058;7.810;2023-05-10T09:20:43;14.30;99.00
1700;DHT22;847;48.058;7.810;2023-05-10T09:23:10;14.20;99.00
1700;DHT22;847;48.058;7.810;2023-05-10T09:25:37;14.30;99.00
1700;DHT22;847;48.058;7.810;2023-05-10T09:28:08;14.40;99.00
1700;DHT22;847;48.058;7.810;2023-05-10T09:30:35;14.40;99.00
1700;DHT22;847;48.058;7.810;2023-05-10T09:33:02;14.60;99.00
1700;DHT22;847;48.058;7.810;2023-05-10T09:35:30;14.60;99.00
1700;DHT22;847;48.058;7.810;2023-05-10T09:37:59;14.60;99.00
1700;DHT22;847;48.058;7.810;2023-05-10T09:40:27;14.60;99.00
1700;DHT22;847;48.058;7.810;2023-05-10T09:42:55;14.70;99.00
1700;DHT22;847;48.058;7.810;2023-05-10T09:45:25;14.80;99.00
1700;DHT22;847;48.058;7.810;2023-05-10T09:47:52;14.80;99.00
1700;DHT22;847;48.058;7.810;2023-05-10T09:50:19;14.80;99.00
1700;DHT22;847;48.058;7.810;2023-05-10T09:52:48;14.80;99.00
1700;DHT22;847;48.058;7.810;2023-05-10T09:55:15;14.90;99.00
1700;DHT22;847;48.058;7.810;2023-05-10T09:57:42;14.80;99.00
1700;DHT22;847;48.058;7.810;2023-05-10T10:00:10;14.80;99.00
1700;DHT22;847;48.058;7.810;2023-05-10T10:02:39;14.90;99.00
1700;DHT22;847;48.058;7.810;2023-05-10T10:05:06;14.90;99.00
1700;DHT22;847;48.058;7.810;2023-05-10T10:07:34;15.00;99.00
1700;DHT22;847;48.058;7.810;2023-05-10T10:10:01;15.10;99.00
1700;DHT22;847;48.058;7.810;2023-05-10T10:12:29;15.10;99.00
1700;DHT22;847;48.058;7.810;2023-05-10T10:14:56;15.20;99.00
1700;DHT22;847;48.058;7.810;2023-05-10T10:17:24;15.40;99.00
1700;DHT22;847;48.058;7.810;2023-05-10T10:19:55;15.50;99.00
1700;DHT22;847;48.058;7.810;2023-05-10T10:22:23;15.70;99.00
1700;DHT22;847;48.058;7.810;2023-05-10T10:24:50;15.70;99.00
1700;DHT22;847;48.058;7.810;2023-05-10T10:27:23;15.60;99.00
1700;DHT22;847;48.058;7.810;2023-05-10T10:30:00;15.70;99.00
1700;DHT22;847;48.058;7.810;2023-05-10T10:32:37;15.70;99.00
1700;DHT22;847;48.058;7.810;2023-05-10T10:35:06;15.70;99.00
1700;DHT22;847;48.058;7.810;2023-05-10T10:37:44;15.70;99.00
1700;DHT22;847;48.058;7.810;2023-05-10T10:40:23;15.70;97.70
1700;DHT22;847;48.058;7.810;2023-05-10T10:42:50;15.80;97.50
1700;DHT22;847;48.058;7.810;2023-05-10T10:45:16;15.80;99.00
1700;DHT22;847;48.058;7.810;2023-05-10T10:47:44;15.80;93.70
1700;DHT22;847;48.058;7.810;2023-05-10T10:50:12;15.90;95.00
1700;DHT22;847;48.058;7.810;2023-05-10T10:52:42;16.10;92.70
1700;DHT22;847;48.058;7.810;2023-05-10T10:55:10;16.30;88.90
1700;DHT22;847;48.058;7.810;2023-05-10T10:57:46;16.30;91.30
1700;DHT22;847;48.058;7.810;2023-05-10T11:00:25;16.30;89.70
1700;DHT22;847;48.058;7.810;2023-05-10T11:02:54;16.40;88.60
1700;DHT22;847;48.058;7.810;2023-05-10T11:05:41;16.50;91.30
1700;DHT22;847;48.058;7.810;2023-05-10T11:08:17;16.70;89.00
1700;DHT22;847;48.058;7.810;2023-05-10T11:11:06;16.80;88.70
1700;DHT22;847;48.058;7.810;2023-05-10T11:13:39;16.90;89.10
1700;DHT22;847;48.058;7.810;2023-05-10T11:16:17;17.00;90.70
1700;DHT22;847;48.058;7.810;2023-05-10T11:18:57;17.00;85.80
1700;DHT22;847;48.058;7.810;2023-05-10T11:21:25;17.00;85.50
1700;DHT22;847;48.058;7.810;2023-05-10T11:23:53;17.20;88.30
1700;DHT22;847;48.058;7.810;2023-05-10T11:26:23;17.10;87.30
1700;DHT22;847;48.058;7.810;2023-05-10T11:28:52;17.00;85.50
1700;DHT22;847;48.058;7.810;2023-05-10T11:31:21;17.10;87.80
1700;DHT22;847;48.058;7.810;2023-05-10T11:33:50;17.10;87.30
1700;DHT22;847;48.058;7.810;2023-05-10T11:36:18;17.20;88.00
1700;DHT22;847;48.058;7.810;2023-05-10T11:38:47;17.30;89.90
1700;DHT22;847;48.058;7.810;2023-05-10T11:41:15;17.40;87.50
1700;DHT22;847;48.058;7.810;2023-05-10T11:43:43;17.40;86.70
1700;DHT22;847;48.058;7.810;2023-05-10T11:46:12;17.30;87.70
1700;DHT22;847;48.058;7.810;2023-05-10T11:48:40;17.30;87.50
1700;DHT22;847;48.058;7.810;2023-05-10T11:51:07;17.40;85.30
1700;DHT22;847;48.058;7.810;2023-05-10T11:53:34;17.40;87.10
1700;DHT22;847;48.058;7.810;2023-05-10T11:56:06;17.60;87.10
1700;DHT22;847;48.058;7.810;2023-05-10T11:58:33;17.60;85.80
1700;DHT22;847;48.058;7.810;2023-05-10T12:01:01;17.60;85.00
1700;DHT22;847;48.058;7.810;2023-05-10T12:03:28;17.50;85.30
1700;DHT22;847;48.058;7.810;2023-05-10T12:05:56;17.50;86.30
1700;DHT22;847;48.058;7.810;2023-05-10T12:08:24;17.50;85.40
1700;DHT22;847;48.058;7.810;2023-05-10T12:10:51;17.40;84.20
1700;DHT22;847;48.058;7.810;2023-05-10T12:13:20;17.40;85.20
1700;DHT22;847;48.058;7.810;2023-05-10T12:15:47;17.30;85.00
1700;DHT22;847;48.058;7.810;2023-05-10T12:18:14;17.20;83.80
1700;DHT22;847;48.058;7.810;2023-05-10T12:20:41;17.10;85.60
1700;DHT22;847;48.058;7.810;2023-05-10T12:23:09;17.10;86.00
1700;DHT22;847;48.058;7.810;2023-05-10T12:25:37;17.00;84.90
1700;DHT22;847;48.058;7.810;2023-05-10T12:28:05;17.00;83.70
1700;DHT22;847;48.058;7.810;2023-05-10T12:30:35;17.00;84.00
1700;DHT22;847;48.058;7.810;2023-05-10T12:33:03;17.00;83.20
1700;DHT22;847;48.058;7.810;2023-05-10T12:35:38;16.90;84.60
1700;DHT22;847;48.058;7.810;2023-05-10T12:38:25;16.90;87.00
1700;DHT22;847;48.058;7.810;2023-05-10T12:40:52;17.00;84.40
1700;DHT22;847;48.058;7.810;2023-05-10T12:43:18;16.90;86.00
1700;DHT22;847;48.058;7.810;2023-05-10T12:45:47;17.00;86.30
1700;DHT22;847;48.058;7.810;2023-05-10T12:48:14;17.00;86.10
1700;DHT22;847;48.058;7.810;2023-05-10T12:50:41;17.00;84.80
1700;DHT22;847;48.058;7.810;2023-05-10T12:53:07;17.10;85.80
1700;DHT22;847;48.058;7.810;2023-05-10T12:55:34;17.00;85.50
1700;DHT22;847;48.058;7.810;2023-05-10T12:58:01;17.00;85.50
1700;DHT22;847;48.058;7.810;2023-05-10T13:00:28;17.00;85.30
1700;DHT22;847;48.058;7.810;2023-05-10T13:02:56;17.00;85.60
1700;DHT22;847;48.058;7.810;2023-05-10T13:05:23;17.10;86.30
1700;DHT22;847;48.058;7.810;2023-05-10T13:07:49;17.00;86.10
1700;DHT22;847;48.058;7.810;2023-05-10T13:10:16;17.00;85.00
1700;DHT22;847;48.058;7.810;2023-05-10T13:12:43;16.90;84.50
1700;DHT22;847;48.058;7.810;2023-05-10T13:15:10;16.80;84.20
1700;DHT22;847;48.058;7.810;2023-05-10T13:17:37;16.80;83.40
1700;DHT22;847;48.058;7.810;2023-05-10T13:20:06;16.80;84.60
1700;DHT22;847;48.058;7.810;2023-05-10T13:22:33;16.80;85.20
1700;DHT22;847;48.058;7.810;2023-05-10T13:25:00;16.80;84.20
1700;DHT22;847;48.058;7.810;2023-05-10T13:27:27;16.80;84.70
1700;DHT22;847;48.058;7.810;2023-05-10T13:29:54;16.80;84.70
1700;DHT22;847;48.058;7.810;2023-05-10T13:32:21;16.80;84.20
1700;DHT22;847;48.058;7.810;2023-05-10T13:34:47;16.70;84.00
1700;DHT22;847;48.058;7.810;2023-05-10T13:37:15;16.80;85.00
1700;DHT22;847;48.058;7.810;2023-05-10T13:39:42;16.80;84.90
1700;DHT22;847;48.058;7.810;2023-05-10T13:42:09;16.80;85.40
1700;DHT22;847;48.058;7.810;2023-05-10T13:44:36;16.80;86.00
1700;DHT22;847;48.058;7.810;2023-05-10T13:47:04;16.80;85.30
1700;DHT22;847;48.058;7.810;2023-05-10T13:49:31;16.80;85.70
1700;DHT22;847;48.058;7.810;2023-05-10T13:51:57;16.80;85.70
1700;DHT22;847;48.058;7.810;2023-05-10T13:54:25;16.80;84.60
1700;DHT22;847;48.058;7.810;2023-05-10T13:56:54;16.80;84.40
1700;DHT22;847;48.058;7.810;2023-05-10T13:59:21;16.80;85.20
1700;DHT22;847;48.058;7.810;2023-05-10T14:01:48;16.80;84.40
1700;DHT22;847;48.058;7.810;2023-05-10T14:04:15;16.90;85.40
1700;DHT22;847;48.058;7.810;2023-05-10T14:06:41;17.00;85.20
1700;DHT22;847;48.058;7.810;2023-05-10T14:09:08;17.10;84.50
1700;DHT22;847;48.058;7.810;2023-05-10T14:11:36;17.20;84.10
1700;DHT22;847;48.058;7.810;2023-05-10T14:14:07;17.30;83.30
1700;DHT22;847;48.058;7.810;2023-05-10T14:16:34;17.20;81.70
1700;DHT22;847;48.058;7.810;2023-05-10T14:19:00;17.20;81.60
1700;DHT22;847;48.058;7.810;2023-05-10T14:21:28;17.20;82.90
1700;DHT22;847;48.058;7.810;2023-05-10T14:23:56;17.20;83.50
1700;DHT22;847;48.058;7.810;2023-05-10T14:26:23;17.20;81.70
1700;DHT22;847;48.058;7.810;2023-05-10T14:28:51;17.10;82.70
1700;DHT22;847;48.058;7.810;2023-05-10T14:31:17;17.10;81.90
1700;DHT22;847;48.058;7.810;2023-05-10T14:33:45;17.10;82.50
1700;DHT22;847;48.058;7.810;2023-05-10T14:36:12;17.10;82.80
1700;DHT22;847;48.058;7.810;2023-05-10T14:38:39;17.10;82.70
1700;DHT22;847;48.058;7.810;2023-05-10T14:41:06;17.10;82.40
1700;DHT22;847;48.058;7.810;2023-05-10T14:43:32;17.10;82.70
1700;DHT22;847;48.058;7.810;2023-05-10T14:46:01;17.00;83.40
1700;DHT22;847;48.058;7.810;2023-05-10T14:48:27;17.00;83.80
1700;DHT22;847;48.058;7.810;2023-05-10T14:50:54;17.00;83.70
1700;DHT22;847;48.058;7.810;2023-05-10T14:53:21;17.00;83.80
1700;DHT22;847;48.058;7.810;2023-05-10T14:55:48;17.10;82.90
1700;DHT22;847;48.058;7.810;2023-05-10T14:58:14;17.10;83.50
1700;DHT22;847;48.058;7.810;2023-05-10T15:00:41;17.10;84.30
1700;DHT22;847;48.058;7.810;2023-05-10T15:03:10;17.00;84.30
1700;DHT22;847;48.058;7.810;2023-05-10T15:05:36;17.00;84.90
1700;DHT22;847;48.058;7.810;2023-05-10T15:08:04;17.00;84.50
1700;DHT22;847;48.058;7.810;2023-05-10T15:10:30;17.00;84.70
1700;DHT22;847;48.058;7.810;2023-05-10T15:12:57;17.10;84.10
1700;DHT22;847;48.058;7.810;2023-05-10T15:15:24;17.10;84.50
1700;DHT22;847;48.058;7.810;2023-05-10T15:17:51;17.10;84.90
1700;DHT22;847;48.058;7.810;2023-05-10T15:20:19;17.20;85.20
1700;DHT22;847;48.058;7.810;2023-05-10T15:22:46;17.10;84.90
1700;DHT22;847;48.058;7.810;2023-05-10T15:25:13;17.10;84.50
1700;DHT22;847;48.058;7.810;2023-05-10T15:27:40;17.10;84.20
1700;DHT22;847;48.058;7.810;2023-05-10T15:30:09;17.10;84.50
1700;DHT22;847;48.058;7.810;2023-05-10T15:32:36;17.10;84.50
1700;DHT22;847;48.058;7.810;2023-05-10T15:35:06;17.10;83.60
1700;DHT22;847;48.058;7.810;2023-05-10T15:37:34;17.20;82.80
1700;DHT22;847;48.058;7.810;2023-05-10T15:40:01;17.30;83.70
1700;DHT22;847;48.058;7.810;2023-05-10T15:42:29;17.30;83.70
1700;DHT22;847;48.058;7.810;2023-05-10T15:44:57;17.40;83.60
1700;DHT22;847;48.058;7.810;2023-05-10T15:47:24;17.40;83.70
1700;DHT22;847;48.058;7.810;2023-05-10T15:49:51;17.40;83.00
1700;DHT22;847;48.058;7.810;2023-05-10T15:52:18;17.40;82.30
1700;DHT22;847;48.058;7.810;2023-05-10T15:54:47;17.40;82.40
1700;DHT22;847;48.058;7.810;2023-05-10T15:57:14;17.30;82.90
1700;DHT22;847;48.058;7.810;2023-05-10T15:59:41;17.30;82.20
1700;DHT22;847;48.058;7.810;2023-05-10T16:02:08;17.20;82.70
1700;DHT22;847;48.058;7.810;2023-05-10T16:04:35;17.20;82.20
1700;DHT22;847;48.058;7.810;2023-05-10T16:07:02;17.20;81.80
1700;DHT22;847;48.058;7.810;2023-05-10T16:09:29;17.10;83.10
1700;DHT22;847;48.058;7.810;2023-05-10T16:11:57;17.10;82.80
1700;DHT22;847;48.058;7.810;2023-05-10T16:14:24;17.00;82.50
1700;DHT22;847;48.058;7.810;2023-05-10T16:16:51;17.00;83.60
1700;DHT22;847;48.058;7.810;2023-05-10T16:19:18;17.00;84.20
1700;DHT22;847;48.058;7.810;2023-05-10T16:21:46;16.80;83.20
1700;DHT22;847;48.058;7.810;2023-05-10T16:24:12;16.60;86.20
1700;DHT22;847;48.058;7.810;2023-05-10T16:26:39;16.10;88.10
1700;DHT22;847;48.058;7.810;2023-05-10T16:29:07;15.70;91.30